createdAt,value
2016-11-26T00:01:25.974Z,4.35
2016-11-26T00:04:19.137Z,4.32
2016-11-26T00:07:12.438Z,4.24
2016-11-26T00:10:05.616Z,4.26
2016-11-26T00:12:59.316Z,4.29
2016-11-26T00:15:52.532Z,4.28
2016-11-26T00:18:45.763Z,4.29
2016-11-26T00:21:39.014Z,4.30
2016-11-26T00:24:32.106Z,4.30
2016-11-26T00:27:25.378Z,4.31
2016-11-26T00:30:18.732Z,4.32
2016-11-26T00:33:12.123Z,4.32
2016-11-26T00:36:05.335Z,4.30
2016-11-26T00:38:59.639Z,4.30
2016-11-26T00:41:51.786Z,4.31
2016-11-26T00:44:45.095Z,4.32
2016-11-26T00:47:38.510Z,4.29
2016-11-26T00:50:31.727Z,4.31
2016-11-26T00:53:25.003Z,4.31
2016-11-26T00:56:18.289Z,4.34
2016-11-26T00:59:11.559Z,4.33
2016-11-26T01:02:04.898Z,4.33
2016-11-26T01:04:58.197Z,4.33
2016-11-26T01:07:51.475Z,4.34
2016-11-26T01:10:44.711Z,4.35
2016-11-26T01:13:37.842Z,4.31
2016-11-26T01:16:31.013Z,4.29
2016-11-26T01:19:24.270Z,4.27
2016-11-26T01:22:17.619Z,4.24
2016-11-26T01:25:10.883Z,4.25
2016-11-26T01:28:04.080Z,4.24
2016-11-26T01:30:57.322Z,4.26
2016-11-26T01:33:50.568Z,4.26
2016-11-26T01:36:43.888Z,4.21
2016-11-26T01:39:37.170Z,4.17
2016-11-26T01:42:30.431Z,4.18
2016-11-26T01:45:23.737Z,4.14
2016-11-26T01:48:16.992Z,4.08
2016-11-26T01:51:10.172Z,4.00
2016-11-26T01:54:04.434Z,3.96
2016-11-26T01:56:56.685Z,3.94
2016-11-26T01:59:50.231Z,3.96
2016-11-26T02:02:43.450Z,3.98
2016-11-26T02:05:36.626Z,4.01
2016-11-26T02:08:29.899Z,4.00
2016-11-26T02:11:23.157Z,4.00
2016-11-26T02:14:16.509Z,3.97
2016-11-26T02:17:09.758Z,3.87
2016-11-26T02:20:02.935Z,3.86
2016-11-26T02:22:56.263Z,3.88
2016-11-26T02:25:49.459Z,3.90
2016-11-26T02:28:42.701Z,3.92
2016-11-26T02:31:37.193Z,3.89
2016-11-26T02:34:29.415Z,3.87
2016-11-26T02:37:22.576Z,3.83
2016-11-26T02:40:15.818Z,3.80
2016-11-26T02:43:08.976Z,3.79
2016-11-26T02:46:02.271Z,3.81
2016-11-26T02:48:55.511Z,3.77
2016-11-26T02:51:48.818Z,3.77
2016-11-26T02:54:42.044Z,3.74
2016-11-26T02:57:36.315Z,3.74
2016-11-26T03:00:28.332Z,3.73
2016-11-26T03:03:22.624Z,3.72
2016-11-26T03:06:14.846Z,3.71
2016-11-26T03:09:08.059Z,3.73
2016-11-26T03:12:01.210Z,3.75
2016-11-26T03:14:54.457Z,3.78
2016-11-26T03:17:47.658Z,3.78
2016-11-26T03:20:40.923Z,3.77
2016-11-26T03:23:34.300Z,3.77
2016-11-26T03:26:27.405Z,3.79
2016-11-26T03:29:21.401Z,3.79
2016-11-26T03:32:13.806Z,3.77
2016-11-26T03:35:07.049Z,3.69
2016-11-26T03:38:00.285Z,3.73
2016-11-26T03:40:53.514Z,3.73
2016-11-26T03:43:46.698Z,3.73
2016-11-26T03:46:39.883Z,3.66
2016-11-26T03:52:26.328Z,3.66
2016-11-26T03:55:19.578Z,3.65
2016-11-26T03:58:13.786Z,3.61
2016-11-26T04:01:05.983Z,3.55
2016-11-26T04:03:59.136Z,3.49
2016-11-26T04:06:52.627Z,3.50
2016-11-26T04:09:46.541Z,3.53
2016-11-26T04:12:38.581Z,3.54
2016-11-26T04:15:31.716Z,3.53
2016-11-26T04:18:24.896Z,3.55
2016-11-26T04:21:18.138Z,3.56
2016-11-26T04:24:11.321Z,3.57
2016-11-26T04:27:04.465Z,3.57
2016-11-26T04:29:58.709Z,3.56
2016-11-26T04:32:50.834Z,3.55
2016-11-26T04:35:44.053Z,3.49
2016-11-26T04:38:37.245Z,3.44
2016-11-26T04:41:30.441Z,3.39
2016-11-26T04:44:23.447Z,3.33
2016-11-26T04:47:17.123Z,3.30
2016-11-26T04:50:10.808Z,3.31
2016-11-26T04:53:03.931Z,3.23
2016-11-26T04:55:57.043Z,3.18
2016-11-26T04:58:50.091Z,3.17
2016-11-26T05:01:43.284Z,3.20
2016-11-26T05:04:36.404Z,3.24
2016-11-26T05:07:29.606Z,3.28
2016-11-26T05:10:22.856Z,3.27
2016-11-26T05:13:15.975Z,3.27
2016-11-26T05:16:09.265Z,3.26
2016-11-26T05:19:02.476Z,3.24
2016-11-26T05:21:55.586Z,3.22
2016-11-26T05:24:48.657Z,3.15
2016-11-26T05:27:41.921Z,3.12
2016-11-26T05:30:35.603Z,3.11
2016-11-26T05:33:29.150Z,3.17
2016-11-26T05:36:22.250Z,3.17
2016-11-26T05:39:15.430Z,3.16
2016-11-26T05:42:08.482Z,3.16
2016-11-26T05:45:01.643Z,3.10
2016-11-26T05:47:54.772Z,3.08
2016-11-26T05:50:47.881Z,3.08
2016-11-26T05:53:42.166Z,3.05
2016-11-26T05:56:34.342Z,3.02
2016-11-26T05:59:27.403Z,3.00
2016-11-26T06:02:20.708Z,2.99
2016-11-26T06:05:13.740Z,2.99
2016-11-26T06:08:06.785Z,3.02
2016-11-26T06:10:59.955Z,3.07
2016-11-26T06:13:53.911Z,3.10
2016-11-26T06:16:46.976Z,3.11
2016-11-26T06:19:39.175Z,3.12
2016-11-26T06:22:32.139Z,3.13
2016-11-26T06:25:25.157Z,3.13
2016-11-26T06:28:18.111Z,3.05
2016-11-26T06:31:11.163Z,2.97
2016-11-26T06:34:04.401Z,2.98
2016-11-26T06:36:57.692Z,2.95
2016-11-26T06:39:50.579Z,2.91
2016-11-26T06:42:43.659Z,2.90
2016-11-26T06:45:36.676Z,2.91
2016-11-26T06:48:29.688Z,2.88
2016-11-26T06:51:22.713Z,2.84
2016-11-26T06:54:15.644Z,2.83
2016-11-26T06:57:09.711Z,2.83
2016-11-26T07:00:01.770Z,2.83
2016-11-26T07:02:54.860Z,2.80
2016-11-26T07:05:47.859Z,2.78
2016-11-26T07:08:41.859Z,2.71
2016-11-26T07:11:33.765Z,2.68
2016-11-26T07:14:26.736Z,2.67
2016-11-26T07:17:19.800Z,2.68
2016-11-26T07:20:12.620Z,2.70
2016-11-26T07:23:05.701Z,2.72
2016-11-26T07:25:58.747Z,2.74
2016-11-26T07:28:52.787Z,2.75
2016-11-26T07:31:44.881Z,2.75
2016-11-26T07:34:37.944Z,2.78
2016-11-26T07:37:30.537Z,2.78
2016-11-26T07:40:24.725Z,2.77
2016-11-26T07:43:17.075Z,2.74
2016-11-26T07:46:10.977Z,2.75
2016-11-26T07:49:05.186Z,2.76
2016-11-26T07:51:58.850Z,2.77
2016-11-26T07:54:52.801Z,2.79
2016-11-26T07:57:46.886Z,2.81
2016-11-26T08:00:40.960Z,2.84
2016-11-26T08:03:35.096Z,2.83
2016-11-26T08:06:30.084Z,2.82
2016-11-26T08:09:24.130Z,2.75
2016-11-26T08:12:17.262Z,2.72
2016-11-26T08:15:11.392Z,2.71
2016-11-26T08:18:05.368Z,2.72
2016-11-26T08:20:59.500Z,2.75
2016-11-26T08:23:53.497Z,2.76
2016-11-26T08:26:47.605Z,2.75
2016-11-26T08:29:41.786Z,2.73
2016-11-26T08:32:35.873Z,2.71
2016-11-26T08:35:29.817Z,2.68
2016-11-26T08:38:23.895Z,2.66
2016-11-26T08:41:17.974Z,2.67
2016-11-26T08:44:12.010Z,2.68
2016-11-26T08:47:05.975Z,2.68
2016-11-26T08:50:00.037Z,2.65
2016-11-26T08:52:54.147Z,2.66
2016-11-26T08:55:49.118Z,2.65
2016-11-26T08:58:42.140Z,2.65
2016-11-26T09:01:36.152Z,2.68
2016-11-26T09:04:30.143Z,2.69
2016-11-26T09:07:24.165Z,2.70
2016-11-26T09:10:18.131Z,2.66
2016-11-26T09:13:12.125Z,2.61
2016-11-26T09:16:06.114Z,2.64
2016-11-26T09:19:00.156Z,2.67
2016-11-26T09:21:54.323Z,2.67
2016-11-26T09:24:49.507Z,2.69
2016-11-26T09:27:42.762Z,2.70
2016-11-26T09:30:36.906Z,2.67
2016-11-26T09:33:32.078Z,2.65
2016-11-26T09:36:25.374Z,2.63
2016-11-26T09:39:19.601Z,2.64
2016-11-26T09:42:13.818Z,2.65
2016-11-26T09:45:08.001Z,2.64
2016-11-26T09:48:02.388Z,2.65
2016-11-26T09:50:56.598Z,2.67
2016-11-26T09:53:50.805Z,2.68
2016-11-26T09:56:45.101Z,2.69
2016-11-26T09:59:39.330Z,2.71
2016-11-26T10:02:33.415Z,2.71
2016-11-26T10:05:27.669Z,2.72
2016-11-26T10:08:21.831Z,2.70
2016-11-26T10:11:16.001Z,2.67
2016-11-26T10:14:10.156Z,2.66
2016-11-26T10:17:04.478Z,2.66
2016-11-26T10:19:58.514Z,2.68
2016-11-26T10:22:52.702Z,2.66
2016-11-26T10:25:47.906Z,2.68
2016-11-26T10:28:41.097Z,2.69
2016-11-26T10:31:35.270Z,2.70
2016-11-26T10:34:30.590Z,2.72
2016-11-26T10:37:23.792Z,2.74
2016-11-26T10:40:19.057Z,2.75
2016-11-26T10:43:12.334Z,2.78
2016-11-26T10:46:06.575Z,2.80
2016-11-26T10:49:00.722Z,2.82
2016-11-26T10:51:55.438Z,2.82
2016-11-26T10:54:50.642Z,2.81
2016-11-26T10:57:44.931Z,2.80
2016-11-26T11:00:38.224Z,2.82
2016-11-26T11:03:32.565Z,2.85
2016-11-26T11:06:26.871Z,2.84
2016-11-26T11:09:22.020Z,2.84
2016-11-26T11:12:15.340Z,2.83
2016-11-26T11:15:09.542Z,2.83
2016-11-26T11:18:03.781Z,2.86
2016-11-26T11:20:58.079Z,2.84
2016-11-26T11:23:52.276Z,2.84
2016-11-26T11:26:46.425Z,2.82
2016-11-26T11:29:40.651Z,2.75
2016-11-26T11:32:34.864Z,2.75
2016-11-26T11:35:29.034Z,2.78
2016-11-26T11:38:23.250Z,2.81
2016-11-26T11:41:17.600Z,2.84
2016-11-26T11:44:11.740Z,2.86
2016-11-26T11:47:06.116Z,2.89
2016-11-26T11:50:00.478Z,2.90
2016-11-26T11:52:54.833Z,2.92
2016-11-26T11:55:49.069Z,2.91
2016-11-26T11:58:43.341Z,2.90
2016-11-26T12:01:37.534Z,2.92
2016-11-26T12:04:32.786Z,2.91
2016-11-26T12:07:26.026Z,2.88
2016-11-26T12:10:20.679Z,2.83
2016-11-26T12:13:14.757Z,2.80
2016-11-26T12:16:09.158Z,2.81
2016-11-26T12:19:03.327Z,2.76
2016-11-26T12:21:57.755Z,2.77
2016-11-26T12:24:51.623Z,2.77
2016-11-26T12:27:46.914Z,2.76
2016-11-26T12:30:40.218Z,2.76
2016-11-26T12:33:34.318Z,2.72
2016-11-26T12:36:28.906Z,2.74
2016-11-26T12:39:23.186Z,2.77
2016-11-26T12:42:18.443Z,2.76
2016-11-26T12:45:11.841Z,2.72
2016-11-26T12:48:05.894Z,2.69
2016-11-26T12:51:00.258Z,2.70
2016-11-26T12:53:54.393Z,2.72
2016-11-26T12:56:48.678Z,2.72
2016-11-26T12:59:42.843Z,2.76
2016-11-26T13:05:31.539Z,2.80
2016-11-26T13:08:25.866Z,2.79
2016-11-26T13:11:20.183Z,2.82
2016-11-26T13:14:14.351Z,2.79
2016-11-26T13:17:08.626Z,2.73
2016-11-26T13:20:04.016Z,2.76
2016-11-26T13:22:57.269Z,2.77
2016-11-26T13:25:51.566Z,2.74
2016-11-26T13:28:45.691Z,2.68
2016-11-26T13:31:39.890Z,2.65
2016-11-26T13:34:34.153Z,2.67
2016-11-26T13:37:28.384Z,2.65
2016-11-26T13:40:22.621Z,2.62
2016-11-26T13:43:16.837Z,2.65
2016-11-26T13:46:11.201Z,2.68
2016-11-26T13:49:05.420Z,2.67
2016-11-26T13:51:59.710Z,2.67
2016-11-26T13:54:53.935Z,2.69
2016-11-26T13:57:48.137Z,2.68
2016-11-26T14:00:42.410Z,2.68
2016-11-26T14:03:37.572Z,2.67
2016-11-26T14:06:31.064Z,2.62
2016-11-26T14:09:25.211Z,2.59
2016-11-26T14:12:19.528Z,2.54
2016-11-26T14:15:13.685Z,2.52
2016-11-26T14:18:07.977Z,2.51
2016-11-26T14:21:02.135Z,2.52
2016-11-26T14:23:56.371Z,2.51
2016-11-26T14:26:50.642Z,2.48
2016-11-26T14:29:45.866Z,2.48
2016-11-26T14:32:39.069Z,2.52
2016-11-26T14:35:33.888Z,2.51
2016-11-26T14:38:28.169Z,2.48
2016-11-26T14:41:22.439Z,2.48
2016-11-26T14:44:17.379Z,2.44
2016-11-26T14:47:11.082Z,2.42
2016-11-26T14:50:05.327Z,2.42
2016-11-26T14:52:59.533Z,2.42
2016-11-26T14:55:53.915Z,2.41
2016-11-26T14:58:49.428Z,2.41
2016-11-26T15:01:42.464Z,2.41
2016-11-26T15:04:36.782Z,2.42
2016-11-26T15:07:32.180Z,2.42
2016-11-26T15:10:25.937Z,2.45
2016-11-26T15:13:20.618Z,2.45
2016-11-26T15:16:14.699Z,2.44
2016-11-26T15:19:08.951Z,2.46
2016-11-26T15:22:03.240Z,2.44
2016-11-26T15:24:57.633Z,2.43
2016-11-26T15:27:52.003Z,2.44
2016-11-26T15:30:46.248Z,2.45
2016-11-26T15:33:40.630Z,2.44
2016-11-26T15:36:34.976Z,2.43
2016-11-26T15:39:29.178Z,2.41
2016-11-26T15:42:23.476Z,2.37
2016-11-26T15:45:17.821Z,2.36
2016-11-26T15:48:11.816Z,2.36
2016-11-26T15:51:06.036Z,2.37
2016-11-26T15:54:00.471Z,2.40
2016-11-26T15:56:54.660Z,2.40
2016-11-26T15:59:48.936Z,2.40
2016-11-26T16:02:43.112Z,2.40
2016-11-26T16:05:37.273Z,2.42
2016-11-26T16:08:31.465Z,2.40
2016-11-26T16:11:25.714Z,2.38
2016-11-26T16:14:20.990Z,2.38
2016-11-26T16:17:14.338Z,2.39
2016-11-26T16:20:08.493Z,2.40
2016-11-26T16:23:02.636Z,2.43
2016-11-26T16:25:56.820Z,2.40
2016-11-26T16:28:51.130Z,2.40
2016-11-26T16:31:45.322Z,2.39
2016-11-26T16:34:39.483Z,2.38
2016-11-26T16:37:33.828Z,2.37
2016-11-26T16:40:29.074Z,2.37
2016-11-26T16:43:22.494Z,2.38
2016-11-26T16:46:16.718Z,2.40
2016-11-26T16:49:11.941Z,2.43
2016-11-26T16:52:05.260Z,2.42
2016-11-26T16:54:59.478Z,2.43
2016-11-26T16:57:54.679Z,2.43
2016-11-26T17:00:47.848Z,2.44
2016-11-26T17:03:42.470Z,2.44
2016-11-26T17:06:36.734Z,2.45
2016-11-26T17:09:30.916Z,2.45
2016-11-26T17:12:25.145Z,2.46
2016-11-26T17:15:19.416Z,2.48
2016-11-26T17:18:13.665Z,2.50
2016-11-26T17:24:03.058Z,2.52
2016-11-26T17:26:56.274Z,2.53
2016-11-26T17:29:50.851Z,2.55
2016-11-26T17:32:44.987Z,2.55
2016-11-26T17:35:39.231Z,2.54
2016-11-26T17:38:33.462Z,2.56
2016-11-26T17:41:27.673Z,2.58
2016-11-26T17:44:21.860Z,2.60
2016-11-26T17:47:17.092Z,2.60
2016-11-26T17:50:10.442Z,2.62
2016-11-26T17:53:04.961Z,2.63
2016-11-26T17:55:59.198Z,2.64
2016-11-26T17:58:53.377Z,2.63
2016-11-26T18:01:47.568Z,2.61
2016-11-26T18:04:41.871Z,2.61
2016-11-26T18:07:36.167Z,2.61
2016-11-26T18:10:31.374Z,2.61
2016-11-26T18:13:24.681Z,2.61
2016-11-26T18:16:19.961Z,2.60
2016-11-26T18:19:13.195Z,2.58
2016-11-26T18:22:07.444Z,2.59
2016-11-26T18:25:01.620Z,2.58
2016-11-26T18:27:56.002Z,2.56
2016-11-26T18:30:50.312Z,2.54
2016-11-26T18:33:44.626Z,2.54
2016-11-26T18:36:38.874Z,2.55
2016-11-26T18:39:33.122Z,2.56
2016-11-26T18:42:27.382Z,2.55
2016-11-26T18:45:21.653Z,2.54
2016-11-26T18:48:15.874Z,2.56
2016-11-26T18:51:10.133Z,2.56
2016-11-26T18:54:04.398Z,2.59
2016-11-26T18:56:58.675Z,2.59
2016-11-26T18:59:52.976Z,2.60
2016-11-26T19:02:47.155Z,2.60
2016-11-26T19:05:41.350Z,2.58
2016-11-26T19:08:35.557Z,2.58
2016-11-26T19:11:29.802Z,2.59
2016-11-26T19:14:24.062Z,2.60
2016-11-26T19:17:18.334Z,2.59
2016-11-26T19:20:13.553Z,2.59
2016-11-26T19:23:07.423Z,2.60
2016-11-26T19:26:01.580Z,2.63
2016-11-26T19:28:55.937Z,2.64
2016-11-26T19:31:51.197Z,2.65
2016-11-26T19:34:45.379Z,2.68
2016-11-26T19:37:38.651Z,2.70
2016-11-26T19:40:32.874Z,2.72
2016-11-26T19:43:27.218Z,2.75
2016-11-26T19:46:21.379Z,2.77
2016-11-26T19:49:15.580Z,2.78
2016-11-26T19:52:09.768Z,2.78
2016-11-26T19:55:04.081Z,2.79
2016-11-26T19:57:58.275Z,2.82
2016-11-26T20:00:52.478Z,2.83
2016-11-26T20:03:46.804Z,2.85
2016-11-26T20:06:41.134Z,2.86
2016-11-26T20:09:35.392Z,2.94
2016-11-26T20:12:29.683Z,3.00
2016-11-26T20:15:23.954Z,2.98
2016-11-26T20:18:18.173Z,2.96
2016-11-26T20:21:12.396Z,3.02
2016-11-26T20:24:06.633Z,2.99
2016-11-26T20:27:00.882Z,2.97
2016-11-26T20:29:55.104Z,2.93
2016-11-26T20:32:49.355Z,2.92
2016-11-26T20:35:43.692Z,2.92
2016-11-26T20:38:37.915Z,2.92
2016-11-26T20:41:32.142Z,2.92
2016-11-26T20:44:26.432Z,2.93
2016-11-26T20:47:20.735Z,2.93
2016-11-26T20:50:14.998Z,2.93
2016-11-26T20:53:09.181Z,2.94
2016-11-26T20:56:04.470Z,2.94
2016-11-26T20:58:57.752Z,2.93
2016-11-26T21:01:52.044Z,2.94
2016-11-26T21:04:46.198Z,2.95
2016-11-26T21:07:40.486Z,2.93
2016-11-26T21:10:34.778Z,2.94
2016-11-26T21:13:29.125Z,2.95
2016-11-26T21:16:24.316Z,2.97
2016-11-26T21:19:17.674Z,2.98
2016-11-26T21:22:12.915Z,3.00
2016-11-26T21:25:06.338Z,3.00
2016-11-26T21:28:00.628Z,3.00
2016-11-26T21:30:54.960Z,3.02
2016-11-26T21:33:50.125Z,3.05
2016-11-26T21:36:43.379Z,3.07
2016-11-26T21:39:38.796Z,3.08
2016-11-26T21:42:32.119Z,3.10
2016-11-26T21:45:26.437Z,3.13
2016-11-26T21:48:20.682Z,3.15
2016-11-26T21:51:15.490Z,3.17
2016-11-26T21:54:09.707Z,3.20
2016-11-26T21:57:03.952Z,3.22
2016-11-26T21:59:58.248Z,3.26
2016-11-26T22:02:52.586Z,3.31
2016-11-26T22:05:46.861Z,3.33
2016-11-26T22:08:41.191Z,3.35
2016-11-26T22:11:35.646Z,3.37
2016-11-26T22:14:29.797Z,3.38
2016-11-26T22:17:24.147Z,3.41
2016-11-26T22:20:19.413Z,3.44
2016-11-26T22:23:13.675Z,3.48
2016-11-26T22:26:07.156Z,3.51
2016-11-26T22:29:01.526Z,3.55
2016-11-26T22:31:55.782Z,3.58
2016-11-26T22:34:50.146Z,3.61
2016-11-26T22:37:44.319Z,3.64
2016-11-26T22:40:38.719Z,3.66
2016-11-26T22:43:33.030Z,3.69
2016-11-26T22:46:27.440Z,3.71
2016-11-26T22:49:21.740Z,3.73
2016-11-26T22:52:16.036Z,3.75
2016-11-26T22:55:10.443Z,3.78
2016-11-26T22:58:04.965Z,3.81
2016-11-26T23:00:59.294Z,3.83
2016-11-26T23:03:53.685Z,3.86
2016-11-26T23:06:47.982Z,3.90
2016-11-26T23:09:42.389Z,3.93
2016-11-26T23:12:36.735Z,3.94
2016-11-26T23:15:31.150Z,3.96
2016-11-26T23:18:25.544Z,4.00
2016-11-26T23:21:19.839Z,4.02
2016-11-26T23:24:14.117Z,4.04
2016-11-26T23:27:08.469Z,4.06
2016-11-26T23:30:02.827Z,4.08
2016-11-26T23:32:57.231Z,4.10
2016-11-26T23:35:51.571Z,4.13
2016-11-26T23:38:45.840Z,4.16
2016-11-26T23:41:40.145Z,4.18
2016-11-26T23:44:34.533Z,4.20
2016-11-26T23:47:28.850Z,4.22
2016-11-26T23:50:23.169Z,4.24
2016-11-26T23:53:17.461Z,4.26
2016-11-26T23:56:11.913Z,4.28
2016-11-26T23:59:06.166Z,4.30
